createdAt,value
2016-06-29T09:04:13.994Z,1007.71
2016-06-29T09:05:12.890Z,1007.72
2016-06-29T09:06:12.904Z,1008.22
2016-06-29T09:07:12.915Z,1008.12
2016-06-29T09:08:12.925Z,1008.05
2016-06-29T09:09:12.939Z,1007.99
2016-06-29T09:10:12.966Z,1008.03
2016-06-29T09:11:12.959Z,1007.88
2016-06-29T09:12:12.974Z,1008.03
2016-06-29T09:13:12.983Z,1008.17
2016-06-29T09:14:12.993Z,1008.12
2016-06-29T09:15:13.005Z,1008
2016-06-29T09:16:13.023Z,1008.03
2016-06-29T09:17:13.033Z,1008.2
2016-06-29T09:18:13.037Z,1008.14
2016-06-29T09:19:13.046Z,1007.95
2016-06-29T09:20:13.057Z,1007.98
2016-06-29T09:21:13.074Z,1008.03
2016-06-29T09:22:13.089Z,1008.06
2016-06-29T09:23:13.092Z,1007.89
2016-06-29T09:24:13.101Z,1007.78
2016-06-29T09:25:13.111Z,1007.66
2016-06-29T09:26:13.125Z,1007.71
2016-06-29T09:27:13.136Z,1007.52
2016-06-29T09:28:13.143Z,1007.47
2016-06-29T09:29:13.156Z,1007.5
2016-06-29T09:30:13.168Z,1007.58
2016-06-29T09:31:13.181Z,1007.71
2016-06-29T09:32:13.190Z,1007.83
2016-06-29T09:33:13.190Z,1007.76
2016-06-29T09:34:13.202Z,1007.49
2016-06-29T09:35:13.219Z,1007.46
2016-06-29T09:36:13.224Z,1007.39
2016-06-29T09:37:13.228Z,1007.37
2016-06-29T09:38:13.241Z,1007.5
2016-06-29T09:39:13.250Z,1007.44
2016-06-29T09:40:13.259Z,1007.59
2016-06-29T09:41:13.268Z,1007.74
2016-06-29T09:42:13.278Z,1007.71
2016-06-29T09:43:13.284Z,1007.67
2016-06-29T09:44:13.292Z,1007.75
2016-06-29T09:45:13.307Z,1007.79
2016-06-29T09:46:13.316Z,1007.69
2016-06-29T09:47:13.323Z,1007.68
2016-06-29T09:48:13.331Z,1007.51
2016-06-29T09:49:13.342Z,1007.56
2016-06-29T09:50:13.349Z,1007.58
2016-06-29T09:51:13.358Z,1007.58
2016-06-29T09:52:13.367Z,1007.81
2016-06-29T09:53:13.377Z,1007.64
2016-06-29T09:54:13.391Z,1007.48
2016-06-29T09:55:13.397Z,1007.54
2016-06-29T09:56:13.406Z,1007.53
2016-06-29T09:57:13.413Z,1007.71
2016-06-29T09:58:13.421Z,1007.77
2016-06-29T09:59:13.427Z,1007.76
2016-06-29T10:00:13.447Z,1007.52
2016-06-29T10:01:13.448Z,1007.48
2016-06-29T10:02:13.468Z,1007.69
2016-06-29T10:04:16.195Z,1007.59
2016-06-29T10:05:14.784Z,1007.32
2016-06-29T10:06:13.489Z,1007.37
2016-06-29T10:07:13.500Z,1007.27
2016-06-29T10:08:13.510Z,1007.16
2016-06-29T10:09:13.526Z,1007.1
2016-06-29T10:10:13.531Z,1007.11
2016-06-29T10:11:13.541Z,1007.03
2016-06-29T10:12:13.549Z,1007.06
2016-06-29T10:13:13.558Z,1007.03
2016-06-29T10:14:14.506Z,1007.14
2016-06-29T10:15:13.576Z,1007.14
2016-06-29T10:16:13.587Z,1007.25
2016-06-29T10:17:13.885Z,1007.28
2016-06-29T10:18:13.606Z,1007.41
2016-06-29T10:19:14.067Z,1007.47
2016-06-29T10:20:13.666Z,1007.6
2016-06-29T10:21:13.635Z,1007.61
2016-06-29T10:22:13.637Z,1007.59
2016-06-29T10:23:13.645Z,1007.62
2016-06-29T10:24:14.107Z,1007.73
2016-06-29T10:25:13.658Z,1007.77
2016-06-29T10:26:13.667Z,1007.89
2016-06-29T10:27:13.665Z,1007.89
2016-06-29T10:28:13.676Z,1007.97
2016-06-29T10:29:13.680Z,1007.91
2016-06-29T10:30:14.088Z,1008.01
2016-06-29T10:31:13.792Z,1008.08
2016-06-29T10:32:14.152Z,1008.14
2016-06-29T10:33:13.710Z,1008.28
2016-06-29T10:34:13.711Z,1008.36
2016-06-29T10:35:13.714Z,1008.32
2016-06-29T10:36:13.720Z,1008.29
2016-06-29T10:37:13.723Z,1008.32
2016-06-29T10:38:13.738Z,1008.43
2016-06-29T10:39:13.739Z,1008.52
2016-06-29T10:40:13.737Z,1008.56
2016-06-29T10:41:13.743Z,1008.56
2016-06-29T10:43:13.748Z,1008.54
2016-06-29T10:44:13.755Z,1008.41
2016-06-29T10:45:13.754Z,1008.27
2016-06-29T10:47:13.765Z,1008.52
2016-06-29T10:48:13.771Z,1008.63
2016-06-29T10:49:13.771Z,1008.61
2016-06-29T10:50:13.793Z,1008.47
2016-06-29T10:52:13.785Z,1008.07
2016-06-29T10:53:13.785Z,1007.95
2016-06-29T10:54:13.799Z,1007.74
2016-06-29T10:55:13.801Z,1007.68
2016-06-29T10:56:13.801Z,1007.69
2016-06-29T10:57:13.805Z,1007.67
2016-06-29T10:58:13.814Z,1007.62
2016-06-29T10:59:13.820Z,1007.58
2016-06-29T11:00:13.822Z,1007.55
2016-06-29T11:01:13.823Z,1007.62
2016-06-29T11:02:13.827Z,1007.56
2016-06-29T11:03:13.832Z,1007.57
2016-06-29T11:04:13.834Z,1007.55
2016-06-29T11:05:13.844Z,1007.57
2016-06-29T11:06:13.847Z,1007.53
2016-06-29T11:07:13.850Z,1007.54
2016-06-29T11:08:13.863Z,1007.5
2016-06-29T11:09:13.858Z,1007.53
2016-06-29T11:10:13.878Z,1007.54
2016-06-29T11:11:13.869Z,1007.55
2016-06-29T11:12:13.878Z,1007.56
2016-06-29T11:13:13.876Z,1007.58
2016-06-29T11:14:13.879Z,1007.56
2016-06-29T11:15:13.883Z,1007.6
2016-06-29T11:16:13.892Z,1007.57
2016-06-29T11:17:13.893Z,1007.58
2016-06-29T11:18:13.898Z,1007.6
2016-06-29T11:19:13.905Z,1007.59
2016-06-29T11:20:13.904Z,1007.59
2016-06-29T11:21:15.078Z,1007.57
2016-06-29T11:22:15.305Z,1007.58
2016-06-29T11:23:13.915Z,1007.59
2016-06-29T11:24:13.918Z,1007.61
2016-06-29T11:25:13.923Z,1007.63
2016-06-29T11:26:13.925Z,1007.61
2016-06-29T11:27:13.927Z,1007.55
2016-06-29T11:28:13.934Z,1007.55
2016-06-29T11:29:13.934Z,1007.54
2016-06-29T11:30:13.936Z,1007.5
2016-06-29T11:31:13.942Z,1007.51
2016-06-29T11:32:13.948Z,1007.52
2016-06-29T11:33:13.954Z,1007.52
2016-06-29T11:34:13.955Z,1007.45
2016-06-29T11:35:13.955Z,1007.43
2016-06-29T11:36:14.403Z,1007.47
2016-06-29T11:37:13.966Z,1007.42
2016-06-29T11:38:14.666Z,1007.41
2016-06-29T11:39:13.972Z,1007.47
2016-06-29T11:40:13.970Z,1007.51
2016-06-29T11:41:13.978Z,1007.48
2016-06-29T11:42:13.985Z,1007.52
2016-06-29T11:43:13.989Z,1007.51
2016-06-29T11:44:13.986Z,1007.56
2016-06-29T11:45:13.996Z,1007.53
2016-06-29T11:46:13.997Z,1007.52
2016-06-29T11:47:13.998Z,1007.5
2016-06-29T11:48:14.006Z,1007.54
2016-06-29T11:49:14.007Z,1007.53
2016-06-29T11:50:14.019Z,1007.53
2016-06-29T11:51:14.010Z,1007.46
2016-06-29T11:52:14.017Z,1007.5
2016-06-29T11:53:14.025Z,1007.57
2016-06-29T11:54:14.024Z,1007.57
2016-06-29T11:55:14.037Z,1007.56
2016-06-29T11:56:14.029Z,1007.56
2016-06-29T11:57:14.042Z,1007.6
2016-06-29T11:58:14.043Z,1007.6
2016-06-29T11:59:14.043Z,1007.6
2016-06-29T12:00:14.063Z,1007.56
2016-06-29T12:01:14.052Z,1007.6
2016-06-29T12:02:14.058Z,1007.59
2016-06-29T12:03:14.059Z,1007.57
2016-06-29T12:04:14.067Z,1007.55
2016-06-29T12:05:14.068Z,1007.5
2016-06-29T12:06:14.072Z,1007.49
2016-06-29T12:07:14.075Z,1007.48
2016-06-29T12:08:14.083Z,1007.42
2016-06-29T12:09:14.092Z,1007.49
2016-06-29T12:10:14.087Z,1007.49
2016-06-29T12:11:14.090Z,1007.46
2016-06-29T12:12:14.095Z,1007.51
2016-06-29T12:13:14.099Z,1007.46
2016-06-29T12:14:14.100Z,1007.34
2016-06-29T12:15:14.104Z,1007.4
2016-06-29T12:16:14.110Z,1007.33
2016-06-29T12:17:14.115Z,1007.31
2016-06-29T12:18:14.121Z,1007.31
2016-06-29T12:19:14.125Z,1007.34
2016-06-29T12:20:14.130Z,1007.32
2016-06-29T12:21:14.127Z,1007.35
2016-06-29T12:22:14.135Z,1007.31
2016-06-29T12:23:14.144Z,1007.35
2016-06-29T12:24:14.145Z,1007.37
2016-06-29T12:25:14.158Z,1007.34
2016-06-29T12:26:14.156Z,1007.36
2016-06-29T12:27:14.155Z,1007.34
2016-06-29T12:28:14.162Z,1007.36
2016-06-29T12:29:14.163Z,1007.33
2016-06-29T12:30:14.166Z,1007.37
2016-06-29T12:31:14.174Z,1007.37
2016-06-29T12:32:14.171Z,1007.49
2016-06-29T12:33:14.180Z,1007.42
2016-06-29T12:34:14.182Z,1007.38
2016-06-29T12:35:14.206Z,1007.64
2016-06-29T12:36:14.198Z,1007.72
2016-06-29T12:37:14.199Z,1007.61
2016-06-29T12:38:14.203Z,1007.29
2016-06-29T12:39:14.207Z,1007.28
2016-06-29T12:40:16.002Z,1007.33
2016-06-29T12:41:14.221Z,1007.2
2016-06-29T12:42:14.225Z,1007.31
2016-06-29T12:43:14.226Z,1007.27
2016-06-29T12:44:14.294Z,1007.28
2016-06-29T12:45:14.488Z,1007.24
2016-06-29T12:46:14.241Z,1007.28
2016-06-29T12:47:14.249Z,1007.35
2016-06-29T12:48:14.247Z,1007.3
2016-06-29T12:49:14.259Z,1007.36
2016-06-29T12:50:14.260Z,1007.36
2016-06-29T12:51:14.272Z,1007.27
2016-06-29T12:52:14.270Z,1007.19
2016-06-29T12:53:14.275Z,1007.25
2016-06-29T12:54:14.278Z,1007.25
2016-06-29T12:55:14.283Z,1007.24
2016-06-29T12:56:15.193Z,1007.25
2016-06-29T12:57:14.296Z,1007.32
2016-06-29T12:58:14.699Z,1007.28
2016-06-29T12:59:14.301Z,1007.27
2016-06-29T13:00:14.308Z,1007.18
2016-06-29T13:01:14.312Z,1007.21
2016-06-29T13:02:14.477Z,1007.2
2016-06-29T13:03:14.327Z,1007.32
2016-06-29T13:04:14.334Z,1007.35
2016-06-29T13:05:14.339Z,1007.53
2016-06-29T13:06:14.340Z,1007.48
2016-06-29T13:07:14.749Z,1007.7
2016-06-29T13:08:14.352Z,1007.45
2016-06-29T13:09:14.360Z,1007.5
2016-06-29T13:10:14.365Z,1007.77
2016-06-29T13:11:14.369Z,1007.51
2016-06-29T13:12:14.373Z,1007.66
2016-06-29T13:13:14.378Z,1007.73
2016-06-29T13:14:14.385Z,1007.47
2016-06-29T13:15:14.390Z,1007.48
2016-06-29T13:16:14.395Z,1007.32
2016-06-29T13:17:14.406Z,1007.36
2016-06-29T13:18:14.410Z,1007.32
2016-06-29T13:19:14.419Z,1007.22
2016-06-29T13:20:14.423Z,1007.22
2016-06-29T13:21:14.434Z,1007.19
2016-06-29T13:22:14.442Z,1007.11
2016-06-29T13:23:14.440Z,1007.09
2016-06-29T13:24:14.446Z,1007.14
2016-06-29T13:25:14.457Z,1007.19
2016-06-29T13:26:14.463Z,1007.19
2016-06-29T13:27:14.466Z,1007.23
2016-06-29T13:28:14.477Z,1007.27
2016-06-29T13:29:14.480Z,1007.43
2016-06-29T13:30:14.484Z,1007.43
2016-06-29T13:31:14.508Z,1007.51
2016-06-29T13:32:14.504Z,1007.59
2016-06-29T13:33:14.505Z,1007.68
2016-06-29T13:34:14.510Z,1007.72
2016-06-29T13:35:14.517Z,1007.9
2016-06-29T13:36:14.534Z,1008.03
2016-06-29T13:37:14.531Z,1008.11
2016-06-29T13:38:14.536Z,1008.24
2016-06-29T13:39:14.542Z,1008.34
2016-06-29T13:40:14.547Z,1008.31
2016-06-29T13:41:14.554Z,1008.21
2016-06-29T13:42:14.556Z,1008.15
2016-06-29T13:43:14.562Z,1008.09
2016-06-29T13:44:14.571Z,1008
2016-06-29T13:45:14.576Z,1007.95
2016-06-29T13:46:14.584Z,1008.05
2016-06-29T13:47:14.587Z,1008.08
2016-06-29T13:48:14.591Z,1008.02
2016-06-29T13:49:14.596Z,1008.11
2016-06-29T13:50:14.611Z,1008.24
2016-06-29T13:51:14.614Z,1008.26
2016-06-29T13:52:14.611Z,1008.1
2016-06-29T13:53:14.651Z,1007.92
2016-06-29T13:54:14.627Z,1007.78
2016-06-29T13:55:14.632Z,1007.72
2016-06-29T13:56:14.635Z,1007.65
2016-06-29T13:57:14.639Z,1007.69
2016-06-29T13:58:14.650Z,1007.69
2016-06-29T13:59:14.658Z,1007.67
2016-06-29T14:00:15.623Z,1007.67
2016-06-29T14:01:14.666Z,1007.67
2016-06-29T14:02:14.671Z,1007.65
2016-06-29T14:03:15.321Z,1007.62
2016-06-29T14:04:14.686Z,1007.59
2016-06-29T14:05:14.693Z,1007.5
2016-06-29T14:06:14.702Z,1007.56
2016-06-29T14:07:14.703Z,1007.6
2016-06-29T14:08:14.719Z,1007.67
2016-06-29T14:09:14.713Z,1007.82
2016-06-29T14:10:14.721Z,1008
2016-06-29T14:11:14.723Z,1008.09
2016-06-29T14:12:14.728Z,1007.75
2016-06-29T14:13:14.737Z,1007.58
2016-06-29T14:14:14.738Z,1007.62
2016-06-29T14:15:14.747Z,1007.67
2016-06-29T14:16:15.163Z,1007.7
2016-06-29T14:17:15.057Z,1008.03
2016-06-29T14:18:14.872Z,1008.21
2016-06-29T14:19:14.771Z,1008.08
2016-06-29T14:20:14.778Z,1008.1
2016-06-29T14:21:14.778Z,1008.34
2016-06-29T14:22:14.790Z,1008
2016-06-29T14:23:15.599Z,1007.91
2016-06-29T14:24:14.800Z,1007.82
2016-06-29T14:26:15.613Z,1008.07
2016-06-29T14:27:14.818Z,1007.89
2016-06-29T14:28:15.079Z,1007.67
2016-06-29T14:29:14.878Z,1007.57
2016-06-29T14:30:14.836Z,1007.53
2016-06-29T14:31:14.846Z,1007.65
2016-06-29T14:32:14.852Z,1007.64
2016-06-29T14:33:14.858Z,1007.48
2016-06-29T14:34:14.861Z,1007.49
2016-06-29T14:35:14.878Z,1007.48
2016-06-29T14:36:14.875Z,1007.52
2016-06-29T14:37:14.887Z,1007.51
2016-06-29T14:38:14.892Z,1007.51
2016-06-29T14:39:14.895Z,1007.47
2016-06-29T14:40:14.906Z,1007.46
2016-06-29T14:41:14.913Z,1007.44
2016-06-29T14:42:14.927Z,1007.5
2016-06-29T14:43:14.921Z,1007.53
2016-06-29T14:44:14.926Z,1007.61
2016-06-29T14:45:14.934Z,1007.61
2016-06-29T14:46:14.942Z,1007.58
2016-06-29T14:47:14.945Z,1007.49
2016-06-29T14:48:14.958Z,1007.44
2016-06-29T14:49:14.979Z,1007.39
2016-06-29T14:50:14.971Z,1007.54
2016-06-29T14:51:14.975Z,1007.51
2016-06-29T14:52:14.979Z,1007.62
2016-06-29T14:53:14.984Z,1007.57
2016-06-29T14:54:14.989Z,1007.6
2016-06-29T14:55:14.992Z,1007.55
2016-06-29T14:56:14.998Z,1007.55
2016-06-29T14:57:15.010Z,1007.53
2016-06-29T14:58:15.008Z,1007.5
2016-06-29T14:59:15.022Z,1007.5
2016-06-29T15:00:15.027Z,1007.53
2016-06-29T15:01:15.027Z,1007.53
2016-06-29T15:02:15.038Z,1007.53
2016-06-29T15:03:15.033Z,1007.58
2016-06-29T15:04:15.043Z,1007.49
2016-06-29T15:05:15.047Z,1007.55
2016-06-29T15:06:15.056Z,1007.59
2016-06-29T15:07:15.059Z,1007.63
2016-06-29T15:08:15.069Z,1007.66
2016-06-29T15:09:15.071Z,1007.69
2016-06-29T15:10:15.073Z,1007.73
2016-06-29T15:11:15.086Z,1007.74
2016-06-29T15:12:15.086Z,1007.77
2016-06-29T15:13:15.093Z,1007.74
2016-06-29T15:14:15.098Z,1007.67
2016-06-29T15:15:15.112Z,1007.77
2016-06-29T15:16:17.139Z,1007.76
2016-06-29T15:17:15.113Z,1007.69
2016-06-29T15:18:16.143Z,1007.73
2016-06-29T15:19:15.695Z,1007.7
2016-06-29T15:20:15.131Z,1007.71
2016-06-29T15:21:15.256Z,1007.68
2016-06-29T15:22:15.162Z,1007.65
2016-06-29T15:23:15.151Z,1007.56
2016-06-29T15:24:15.154Z,1007.52
2016-06-29T15:25:15.160Z,1007.51
2016-06-29T15:26:15.692Z,1007.55
2016-06-29T15:27:15.171Z,1007.54
2016-06-29T15:28:15.174Z,1007.51
2016-06-29T15:29:15.183Z,1007.57
2016-06-29T15:30:15.962Z,1007.54
2016-06-29T15:31:15.199Z,1007.53
2016-06-29T15:32:16.103Z,1007.53
2016-06-29T15:33:15.206Z,1007.51
2016-06-29T15:34:15.465Z,1007.48
2016-06-29T15:35:15.222Z,1007.46
2016-06-29T15:36:15.225Z,1007.37
2016-06-29T15:37:15.229Z,1007.35
2016-06-29T15:38:15.238Z,1007.33
2016-06-29T15:39:15.259Z,1007.39
2016-06-29T15:40:15.243Z,1007.32
2016-06-29T15:41:15.255Z,1007.33
2016-06-29T15:42:15.909Z,1007.35
2016-06-29T15:43:15.263Z,1007.3
2016-06-29T15:44:15.521Z,1007.4
2016-06-29T15:45:15.272Z,1007.44
2016-06-29T15:46:15.277Z,1007.37
2016-06-29T15:47:15.284Z,1007.34
2016-06-29T15:48:15.287Z,1007.31
2016-06-29T15:49:15.322Z,1007.36
2016-06-29T15:50:15.298Z,1007.32
2016-06-29T15:51:15.300Z,1007.33
2016-06-29T15:52:15.308Z,1007.36
2016-06-29T15:53:15.316Z,1007.34
2016-06-29T15:54:15.319Z,1007.38
2016-06-29T15:55:15.329Z,1007.36
2016-06-29T15:56:15.322Z,1007.36
2016-06-29T15:57:15.335Z,1007.34
2016-06-29T15:58:15.341Z,1007.3
2016-06-29T15:59:15.346Z,1007.29
2016-06-29T16:00:15.343Z,1007.29
2016-06-29T16:01:15.350Z,1007.36
2016-06-29T16:02:15.362Z,1007.36
2016-06-29T16:03:15.368Z,1007.36
2016-06-29T16:04:15.366Z,1007.34
2016-06-29T16:05:15.382Z,1007.31
2016-06-29T16:06:15.381Z,1007.34
2016-06-29T16:07:15.386Z,1007.31
2016-06-29T16:08:15.385Z,1007.27
2016-06-29T16:09:15.399Z,1007.3
2016-06-29T16:10:15.406Z,1007.23
2016-06-29T16:11:15.399Z,1007.19
2016-06-29T16:12:15.407Z,1007.18
2016-06-29T16:13:15.419Z,1007.17
2016-06-29T16:14:15.419Z,1007.2
2016-06-29T16:15:15.417Z,1007.24
2016-06-29T16:16:15.434Z,1007.2
2016-06-29T16:17:15.428Z,1007.21
2016-06-29T16:18:15.430Z,1007.25
2016-06-29T16:19:15.443Z,1007.3
2016-06-29T16:20:15.444Z,1007.29
2016-06-29T16:21:15.449Z,1007.31
2016-06-29T16:22:15.454Z,1007.29
2016-06-29T16:23:15.457Z,1007.27
2016-06-29T16:24:15.461Z,1007.25
2016-06-29T16:25:15.463Z,1007.29
2016-06-29T16:26:15.467Z,1007.29
2016-06-29T16:27:15.471Z,1007.26
2016-06-29T16:28:15.474Z,1007.29
2016-06-29T16:29:15.483Z,1007.28
2016-06-29T16:30:15.483Z,1007.32
2016-06-29T16:31:15.500Z,1007.31
2016-06-29T16:32:15.492Z,1007.34
2016-06-29T16:33:15.518Z,1007.33
2016-06-29T16:34:15.506Z,1007.38
2016-06-29T16:35:15.501Z,1007.38
2016-06-29T16:36:15.508Z,1007.36
2016-06-29T16:37:15.515Z,1007.38
2016-06-29T16:38:15.519Z,1007.39
2016-06-29T16:39:15.526Z,1007.42
2016-06-29T16:40:15.525Z,1007.41
2016-06-29T16:41:15.529Z,1007.41
2016-06-29T16:42:15.530Z,1007.42
2016-06-29T16:43:15.540Z,1007.4
2016-06-29T16:44:15.542Z,1007.38
2016-06-29T16:45:15.546Z,1007.42
2016-06-29T16:46:15.550Z,1007.48
2016-06-29T16:47:15.550Z,1007.46
2016-06-29T16:48:15.558Z,1007.45
2016-06-29T16:49:15.567Z,1007.47
2016-06-29T16:50:15.566Z,1007.45
2016-06-29T16:51:15.572Z,1007.49
2016-06-29T16:52:15.672Z,1007.5
2016-06-29T16:53:15.575Z,1007.5
2016-06-29T16:54:15.883Z,1007.51
2016-06-29T16:55:16.131Z,1007.48
2016-06-29T16:56:15.588Z,1007.52
2016-06-29T16:57:15.589Z,1007.42
2016-06-29T16:58:15.590Z,1007.49
2016-06-29T16:59:15.599Z,1007.49
2016-06-29T17:00:15.611Z,1007.48
2016-06-29T17:01:15.612Z,1007.49
2016-06-29T17:02:16.524Z,1007.54
2016-06-29T17:03:16.262Z,1007.52
2016-06-29T17:04:15.622Z,1007.5
2016-06-29T17:05:15.630Z,1007.52
2016-06-29T17:06:15.627Z,1007.52
2016-06-29T17:07:15.783Z,1007.52
2016-06-29T17:08:15.638Z,1007.52
2016-06-29T17:09:15.635Z,1007.52
2016-06-29T17:10:15.654Z,1007.56
2016-06-29T17:11:15.641Z,1007.56
2016-06-29T17:12:15.646Z,1007.59
2016-06-29T17:13:15.646Z,1007.58
2016-06-29T17:14:15.654Z,1007.58
2016-06-29T17:15:15.656Z,1007.56
2016-06-29T17:16:15.659Z,1007.58
2016-06-29T17:17:15.664Z,1007.63
2016-06-29T17:18:15.669Z,1007.59
2016-06-29T17:19:15.672Z,1007.59
2016-06-29T17:20:15.671Z,1007.6
2016-06-29T17:21:15.685Z,1007.62
2016-06-29T17:22:15.680Z,1007.6
2016-06-29T17:23:15.683Z,1007.59
2016-06-29T17:24:15.683Z,1007.6
2016-06-29T17:25:15.698Z,1007.6
2016-06-29T17:26:15.694Z,1007.62
2016-06-29T17:27:15.697Z,1007.65
2016-06-29T17:28:15.698Z,1007.75
2016-06-29T17:29:15.702Z,1007.78
2016-06-29T17:30:15.709Z,1007.75
2016-06-29T17:31:15.712Z,1007.78
2016-06-29T17:32:15.715Z,1007.77
2016-06-29T17:33:15.718Z,1007.83
2016-06-29T17:34:15.717Z,1007.75
2016-06-29T17:35:17.205Z,1007.8
2016-06-29T17:36:16.539Z,1007.84
2016-06-29T17:37:15.728Z,1007.91
2016-06-29T17:38:15.734Z,1007.89
2016-06-29T17:39:15.737Z,1007.9
2016-06-29T17:40:15.741Z,1007.88
2016-06-29T17:41:15.742Z,1007.88
2016-06-29T17:42:15.746Z,1007.92
2016-06-29T17:43:15.748Z,1007.9
2016-06-29T17:44:15.755Z,1007.89
2016-06-29T17:45:15.758Z,1007.91
2016-06-29T17:46:16.713Z,1007.9
2016-06-29T17:47:15.763Z,1007.89
2016-06-29T17:48:15.762Z,1007.87
2016-06-29T17:49:15.768Z,1007.83
2016-06-29T17:50:15.779Z,1007.86
2016-06-29T17:51:15.771Z,1007.86
2016-06-29T17:52:15.777Z,1007.87
2016-06-29T17:53:15.782Z,1007.86
2016-06-29T17:54:15.793Z,1007.85
2016-06-29T17:55:15.788Z,1007.85
2016-06-29T17:56:15.790Z,1007.83
2016-06-29T17:57:15.795Z,1007.76
2016-06-29T17:58:15.794Z,1007.77
2016-06-29T17:59:15.801Z,1007.77
2016-06-29T18:00:15.798Z,1007.79
2016-06-29T18:01:15.803Z,1007.76
2016-06-29T18:02:15.812Z,1007.81
2016-06-29T18:03:15.824Z,1007.83
2016-06-29T18:04:15.811Z,1007.87
2016-06-29T18:05:15.819Z,1007.9
2016-06-29T18:06:15.818Z,1007.9
2016-06-29T18:07:15.816Z,1007.9
2016-06-29T18:08:15.823Z,1007.91
2016-06-29T18:10:15.827Z,1007.96
2016-06-29T18:11:15.825Z,1007.96
2016-06-29T18:12:15.827Z,1007.97
2016-06-29T18:13:15.833Z,1007.97
2016-06-29T18:14:15.835Z,1007.97
2016-06-29T18:15:15.844Z,1007.99
2016-06-29T18:16:15.843Z,1008.01
2016-06-29T18:17:15.845Z,1008.03
2016-06-29T18:18:15.845Z,1008.06
2016-06-29T18:19:15.844Z,1008.05
2016-06-29T18:20:16.502Z,1008.05
2016-06-29T18:21:15.850Z,1008.1
2016-06-29T18:22:15.854Z,1008.11
2016-06-29T18:23:15.855Z,1008.13
2016-06-29T18:24:15.959Z,1008.11
2016-06-29T18:25:15.862Z,1008.13
2016-06-29T18:26:15.868Z,1008.12
2016-06-29T18:27:15.867Z,1008.12
2016-06-29T18:28:15.865Z,1008.1
2016-06-29T18:29:15.867Z,1008.13
2016-06-29T18:30:15.873Z,1008.14
2016-06-29T18:31:15.889Z,1008.13
2016-06-29T18:32:15.886Z,1008.15
2016-06-29T18:33:15.878Z,1008.14
2016-06-29T18:34:15.887Z,1008.15
2016-06-29T18:35:15.883Z,1008.16
2016-06-29T18:36:15.883Z,1008.18
2016-06-29T18:37:15.887Z,1008.17
2016-06-29T18:38:15.893Z,1008.14
2016-06-29T18:39:15.897Z,1008.2
2016-06-29T18:40:15.896Z,1008.18
2016-06-29T18:41:15.890Z,1008.2
2016-06-29T18:42:15.897Z,1008.19
2016-06-29T18:43:15.897Z,1008.21
2016-06-29T18:44:15.900Z,1008.22
2016-06-29T18:45:15.917Z,1008.22
2016-06-29T18:46:15.918Z,1008.22
2016-06-29T18:47:15.902Z,1008.24
2016-06-29T18:48:15.913Z,1008.2
2016-06-29T18:49:15.909Z,1008.23
2016-06-29T18:50:15.913Z,1008.23
2016-06-29T18:51:15.909Z,1008.23
2016-06-29T18:52:15.917Z,1008.24
2016-06-29T18:53:15.919Z,1008.24
2016-06-29T18:54:15.919Z,1008.26
2016-06-29T18:55:15.948Z,1008.28
2016-06-29T18:56:15.920Z,1008.27
2016-06-29T18:57:15.932Z,1008.27
2016-06-29T18:58:16.253Z,1008.29
2016-06-29T18:59:15.929Z,1008.3
2016-06-29T19:00:15.928Z,1008.29
2016-06-29T19:01:15.933Z,1008.29
2016-06-29T19:02:16.035Z,1008.28
2016-06-29T19:03:15.951Z,1008.25
2016-06-29T19:04:16.195Z,1008.27
2016-06-29T19:05:16.399Z,1008.28
2016-06-29T19:06:15.938Z,1008.27
2016-06-29T19:07:15.947Z,1008.31
2016-06-29T19:08:15.943Z,1008.31
2016-06-29T19:09:15.939Z,1008.29
2016-06-29T19:10:15.942Z,1008.37
2016-06-29T19:11:15.946Z,1008.34
2016-06-29T19:12:15.946Z,1008.35
2016-06-29T19:13:15.946Z,1008.39
2016-06-29T19:14:15.942Z,1008.44
2016-06-29T19:15:15.948Z,1008.46
2016-06-29T19:16:15.955Z,1008.47
2016-06-29T19:17:15.969Z,1008.44
2016-06-29T19:18:15.979Z,1008.43
2016-06-29T19:19:15.990Z,1008.45
2016-06-29T19:20:16.017Z,1008.49
2016-06-29T19:21:16.003Z,1008.47
2016-06-29T19:22:15.955Z,1008.46
2016-06-29T19:23:15.954Z,1008.47
2016-06-29T19:24:15.956Z,1008.47
2016-06-29T19:25:15.963Z,1008.5
2016-06-29T19:26:15.962Z,1008.49
2016-06-29T19:27:15.963Z,1008.57
2016-06-29T19:28:17.064Z,1008.59
2016-06-29T19:30:15.962Z,1008.64
2016-06-29T19:31:15.964Z,1008.65
2016-06-29T19:32:15.965Z,1008.64
2016-06-29T19:33:15.969Z,1008.61
2016-06-29T19:34:15.971Z,1008.63
2016-06-29T19:35:15.969Z,1008.65
2016-06-29T19:36:15.980Z,1008.65
2016-06-29T19:37:15.971Z,1008.7
2016-06-29T19:38:15.963Z,1008.7
2016-06-29T19:39:15.971Z,1008.74
2016-06-29T19:40:15.972Z,1008.74
2016-06-29T19:41:15.973Z,1008.73
2016-06-29T19:42:15.978Z,1008.77
2016-06-29T19:43:15.969Z,1008.8
2016-06-29T19:44:16.182Z,1008.81
2016-06-29T19:45:15.970Z,1008.84
2016-06-29T19:46:15.969Z,1008.8
2016-06-29T19:47:15.967Z,1008.79
2016-06-29T19:48:15.969Z,1008.82
2016-06-29T19:49:15.973Z,1008.86
2016-06-29T19:50:15.970Z,1008.82
2016-06-29T19:51:15.975Z,1008.84
2016-06-29T19:52:15.970Z,1008.89
2016-06-29T19:53:15.986Z,1008.89
2016-06-29T19:54:15.974Z,1008.86
2016-06-29T19:55:15.973Z,1008.86
2016-06-29T19:56:15.970Z,1008.89
2016-06-29T19:57:15.971Z,1008.85
2016-06-29T19:58:15.974Z,1008.86
2016-06-29T19:59:15.968Z,1008.88
2016-06-29T20:00:15.982Z,1008.9
2016-06-29T20:01:15.968Z,1008.95
2016-06-29T20:02:15.969Z,1008.96
2016-06-29T20:03:15.986Z,1008.93
2016-06-29T20:04:15.971Z,1008.95
2016-06-29T20:05:15.971Z,1008.96
2016-06-29T20:06:15.975Z,1008.99
2016-06-29T20:07:15.967Z,1008.95
2016-06-29T20:08:15.964Z,1008.94
2016-06-29T20:09:15.972Z,1008.93
2016-06-29T20:10:15.970Z,1008.97
2016-06-29T20:11:15.970Z,1008.92
2016-06-29T20:13:16.994Z,1008.99
2016-06-29T20:14:15.964Z,1009
2016-06-29T20:15:15.962Z,1008.99
2016-06-29T20:16:15.964Z,1009
2016-06-29T20:17:15.967Z,1008.99
2016-06-29T20:18:15.960Z,1008.97
2016-06-29T20:19:15.975Z,1008.99
2016-06-29T20:20:15.961Z,1008.98
2016-06-29T20:21:15.958Z,1009
2016-06-29T20:22:15.958Z,1008.98
2016-06-29T20:23:16.306Z,1008.97
2016-06-29T20:24:15.961Z,1009.03
2016-06-29T20:25:15.961Z,1009.05
2016-06-29T20:26:16.518Z,1009.01
2016-06-29T20:27:15.954Z,1009
2016-06-29T20:28:15.978Z,1009.05
2016-06-29T20:29:15.953Z,1009.03
2016-06-29T20:30:15.961Z,1009.05
2016-06-29T20:31:15.955Z,1009.06
2016-06-29T20:32:15.951Z,1009.11
2016-06-29T20:33:15.952Z,1009.09
2016-06-29T20:34:15.949Z,1009.08
2016-06-29T20:35:15.951Z,1009.08
2016-06-29T20:36:15.945Z,1009.1
2016-06-29T20:37:15.952Z,1009.09
2016-06-29T20:38:15.965Z,1009.07
2016-06-29T20:39:15.946Z,1009.07
2016-06-29T20:40:15.947Z,1009.1
2016-06-29T20:41:15.944Z,1009.1
2016-06-29T20:42:15.946Z,1009.12
2016-06-29T20:43:15.947Z,1009.12
2016-06-29T20:44:15.941Z,1009.11
2016-06-29T20:45:15.938Z,1009.1
2016-06-29T20:46:15.939Z,1009.09
2016-06-29T20:47:15.941Z,1009.12
2016-06-29T20:48:15.940Z,1009.12
2016-06-29T20:49:15.943Z,1009.07
2016-06-29T20:50:15.939Z,1009.07
2016-06-29T20:51:15.937Z,1009.09
2016-06-29T20:52:15.931Z,1009.08
2016-06-29T20:53:15.929Z,1009.15
2016-06-29T20:54:15.935Z,1009.14
2016-06-29T20:55:16.135Z,1009.13
2016-06-29T20:56:15.929Z,1009.16
2016-06-29T20:57:15.933Z,1009.15
2016-06-29T20:58:15.969Z,1009.13
2016-06-29T20:59:15.934Z,1009.14
2016-06-29T21:00:15.924Z,1009.13
2016-06-29T21:01:15.932Z,1009.14
2016-06-29T21:02:15.933Z,1009.17
2016-06-29T21:03:15.923Z,1009.18
2016-06-29T21:04:15.923Z,1009.15
2016-06-29T21:05:15.917Z,1009.11
2016-06-29T21:06:15.916Z,1009.14
2016-06-29T21:07:15.916Z,1009.14
2016-06-29T21:08:15.917Z,1009.14
2016-06-29T21:09:15.909Z,1009.15
2016-06-29T21:10:15.915Z,1009.13
2016-06-29T21:11:15.919Z,1009.16
2016-06-29T21:12:15.908Z,1009.16
2016-06-29T21:13:15.909Z,1009.16
2016-06-29T21:14:15.910Z,1009.15
2016-06-29T21:15:15.908Z,1009.17
2016-06-29T21:16:15.905Z,1009.17
2016-06-29T21:17:15.904Z,1009.18
2016-06-29T21:18:15.904Z,1009.18
2016-06-29T21:19:15.898Z,1009.19
2016-06-29T21:20:15.895Z,1009.21